Time;durP1;ratioP1;P1;durP2;ratioP2;P2;SDS_P1;SDS_P2;PMS_P1;PMS_P2;Temp;Humidity;BMP_temperature;BMP_pressure;BME280_temperature;BME280_humidity;BME280_pressure;Samples;Min_cycle;Max_cycle;Signal;HPM_P1;HPM_P2
2022/06/19 00:00:05;;;;;;;10.35;2.72;;;22.90;65.40;;;;;;5049689;28;20045;-72
2022/06/19 00:02:40;;;;;;;13.00;2.40;;;22.80;65.80;;;;;;5044417;28;20420;-71
2022/06/19 00:05:09;;;;;;;11.68;3.70;;;22.80;65.90;;;;;;5053672;28;20105;-70
2022/06/19 00:07:36;;;;;;;11.18;2.53;;;22.70;66.20;;;;;;5053481;28;20559;-71
2022/06/19 00:10:05;;;;;;;10.18;2.53;;;22.60;66.40;;;;;;5053985;28;20048;-68
2022/06/19 00:12:33;;;;;;;7.43;2.65;;;22.60;66.50;;;;;;5048460;28;20055;-71
2022/06/19 00:15:00;;;;;;;14.40;3.53;;;22.60;66.50;;;;;;5047423;28;20594;-69
2022/06/19 00:17:28;;;;;;;13.48;3.55;;;22.60;66.40;;;;;;5047386;28;20595;-73
2022/06/19 00:19:55;;;;;;;7.28;2.65;;;22.60;66.10;;;;;;5041674;28;20048;-71
2022/06/19 00:22:22;;;;;;;10.85;3.50;;;22.60;66.00;;;;;;5054529;28;20168;-70
2022/06/19 00:24:49;;;;;;;7.75;2.85;;;22.60;65.70;;;;;;5048909;28;20053;-75
2022/06/19 00:27:16;;;;;;;13.27;3.45;;;22.70;65.40;;;;;;5042156;28;20068;-69
2022/06/19 00:29:44;;;;;;;14.32;3.58;;;22.60;65.40;;;;;;5045503;28;20051;-69
2022/06/19 00:32:13;;;;;;;9.45;3.08;;;22.60;65.20;;;;;;5046720;28;20145;-70
2022/06/19 00:34:40;;;;;;;9.93;2.60;;;22.60;65.00;;;;;;5057223;28;20507;-70
2022/06/19 00:37:07;;;;;;;16.08;2.83;;;22.60;64.60;;;;;;5058133;28;20053;-78
2022/06/19 00:39:39;;;;;;;9.40;3.00;;;22.60;64.40;;;;;;5057778;28;20056;-68
2022/06/19 00:42:08;;;;;;;10.32;2.38;;;22.60;64.10;;;;;;5049684;28;20036;-72
2022/06/19 00:44:35;;;;;;;10.10;2.53;;;22.60;64.20;;;;;;5049408;28;20052;-71
2022/06/19 00:47:14;;;;;;;12.80;2.53;;;22.60;64.20;;;;;;5055248;28;20037;-71
2022/06/19 00:49:45;;;;;;;5.90;2.75;;;22.60;64.40;;;;;;5044884;28;20053;-72
2022/06/19 00:52:17;;;;;;;8.50;2.55;;;22.60;64.30;;;;;;5046241;28;20147;-71
2022/06/19 00:54:48;;;;;;;7.80;2.80;;;22.60;64.30;;;;;;5054363;28;20393;-75
2022/06/19 00:57:16;;;;;;;10.88;3.88;;;22.60;64.40;;;;;;5056017;28;20515;-70
2022/06/19 00:59:47;;;;;;;8.95;2.38;;;22.50;64.50;;;;;;5050477;28;20049;-72
2022/06/19 01:02:15;;;;;;;8.73;2.40;;;22.50;64.90;;;;;;5038813;28;20056;-69
2022/06/19 01:04:47;;;;;;;11.75;3.10;;;22.40;65.00;;;;;;5050283;28;20052;-73
2022/06/19 01:07:15;;;;;;;10.02;3.10;;;22.30;65.10;;;;;;5051292;28;20045;-72
2022/06/19 01:09:42;;;;;;;8.20;1.90;;;22.30;65.30;;;;;;5045612;28;20053;-71
2022/06/19 01:12:09;;;;;;;10.77;2.70;;;22.30;65.60;;;;;;5050556;28;20400;-72
2022/06/19 01:14:39;;;;;;;7.05;1.95;;;22.20;65.80;;;;;;5048778;28;20888;-71
2022/06/19 01:17:06;;;;;;;5.22;1.52;;;22.10;66.10;;;;;;5056218;28;20056;-71
2022/06/19 01:19:41;;;;;;;6.28;2.03;;;22.10;66.40;;;;;;5040872;28;20053;-72
2022/06/19 01:22:15;;;;;;;6.88;2.20;;;22.10;66.40;;;;;;5047018;28;20064;-71
2022/06/19 01:25:07;;;;;;;6.25;1.95;;;22.10;66.40;;;;;;5050373;28;20055;-71
2022/06/19 01:30:45;;;;;;;9.00;2.35;;;22.10;66.30;;;;;;4986281;28;20073;-72
2022/06/19 01:33:15;;;;;;;7.63;2.70;;;22.10;66.40;;;;;;4990514;28;20054;-74
2022/06/19 01:35:46;;;;;;;10.55;2.63;;;22.00;66.40;;;;;;5023962;28;20167;-76
2022/06/19 01:38:16;;;;;;;4.80;2.58;;;22.00;66.50;;;;;;5047878;28;20132;-72
2022/06/19 01:40:47;;;;;;;8.25;2.22;;;22.00;66.80;;;;;;5052754;28;20045;-71
2022/06/19 01:43:15;;;;;;;7.05;2.03;;;21.90;66.90;;;;;;5054273;28;20202;-72
2022/06/19 01:45:48;;;;;;;8.57;2.50;;;21.80;67.10;;;;;;5045983;28;20044;-74
2022/06/19 01:48:16;;;;;;;7.30;2.55;;;21.80;67.30;;;;;;5049556;28;20389;-71
2022/06/19 01:50:44;;;;;;;9.45;2.40;;;21.70;67.60;;;;;;5051399;28;20510;-77
2022/06/19 01:53:16;;;;;;;18.90;3.22;;;21.70;67.80;;;;;;5049240;28;20055;-68
2022/06/19 01:55:43;;;;;;;6.75;2.30;;;21.70;67.80;;;;;;5057567;28;20045;-72
2022/06/19 01:58:10;;;;;;;6.82;2.05;;;21.60;67.90;;;;;;5046427;28;20412;-71
2022/06/19 02:00:41;;;;;;;8.23;2.05;;;21.60;68.10;;;;;;5044061;28;20466;-71
2022/06/19 02:03:11;;;;;;;8.32;3.03;;;21.60;68.20;;;;;;5043836;28;20053;-68
2022/06/19 02:05:40;;;;;;;11.63;2.25;;;21.60;68.20;;;;;;5054870;28;20144;-70
2022/06/19 02:08:09;;;;;;;6.90;2.17;;;21.50;68.30;;;;;;5045026;28;20098;-71
2022/06/19 02:10:40;;;;;;;9.57;2.03;;;21.50;68.50;;;;;;5049951;28;20061;-70
2022/06/19 02:13:08;;;;;;;6.22;2.10;;;21.40;68.70;;;;;;5050212;28;20052;-69
2022/06/19 02:15:39;;;;;;;6.68;2.83;;;21.40;68.80;;;;;;5052961;28;20049;-72
2022/06/19 02:18:10;;;;;;;9.43;2.38;;;21.40;68.90;;;;;;5046891;28;20049;-76
2022/06/19 02:20:37;;;;;;;6.00;2.28;;;21.40;68.90;;;;;;5050492;28;20157;-76
2022/06/19 02:23:05;;;;;;;11.80;2.42;;;21.30;68.90;;;;;;5048649;28;20055;-71
2022/06/19 02:25:35;;;;;;;11.10;2.58;;;21.30;69.00;;;;;;5057408;28;20041;-77
2022/06/19 02:28:03;;;;;;;7.55;2.30;;;21.30;69.20;;;;;;5056965;28;20054;-69
2022/06/19 02:30:30;;;;;;;6.82;2.25;;;21.30;69.20;;;;;;5050831;28;20134;-71
2022/06/19 02:32:59;;;;;;;7.50;2.03;;;21.30;69.20;;;;;;5060359;28;20052;-72
2022/06/19 02:35:26;;;;;;;10.77;2.30;;;21.20;69.20;;;;;;5052497;28;20389;-73
2022/06/19 02:37:56;;;;;;;7.57;2.78;;;21.30;69.30;;;;;;5051876;28;20041;-67
2022/06/19 02:40:32;;;;;;;16.15;2.97;;;21.20;69.30;;;;;;5064946;28;20067;-72
2022/06/19 02:42:59;;;;;;;9.70;2.75;;;21.20;69.30;;;;;;5054382;28;20048;-76
2022/06/19 02:45:29;;;;;;;8.57;2.50;;;21.20;69.30;;;;;;5072537;28;20051;-71
2022/06/19 02:47:56;;;;;;;;;;;21.20;69.40;;;;;;5048235;28;20531;-69
2022/06/19 02:50:28;;;;;;;7.32;2.33;;;21.10;69.50;;;;;;5049960;28;19921;-75
2022/06/19 02:52:55;;;;;;;8.45;2.47;;;21.20;69.20;;;;;;5050027;28;20044;-71
2022/06/19 02:55:23;;;;;;;10.63;3.00;;;21.20;69.20;;;;;;5048367;28;20051;-75
2022/06/19 02:57:51;;;;;;;11.40;2.20;;;21.10;69.30;;;;;;5045547;28;20045;-71
2022/06/19 03:00:21;;;;;;;6.55;2.65;;;21.10;69.40;;;;;;5044689;28;20466;-69
2022/06/19 03:02:50;;;;;;;10.27;2.85;;;21.10;69.60;;;;;;5052222;28;20056;-71
2022/06/19 03:05:20;;;;;;;10.18;3.22;;;21.10;69.70;;;;;;5052667;28;20045;-69
2022/06/19 03:07:48;;;;;;;4.72;1.95;;;21.00;69.90;;;;;;5049767;28;20489;-71
2022/06/19 03:10:16;;;;;;;6.15;2.50;;;21.00;70.00;;;;;;5045954;28;20041;-72
2022/06/19 03:12:43;;;;;;;8.05;2.03;;;20.90;70.00;;;;;;5044479;28;20045;-71
2022/06/19 03:15:15;;;;;;;11.23;2.40;;;20.90;70.00;;;;;;5048971;28;20048;-71
2022/06/19 03:17:42;;;;;;;6.65;1.83;;;20.90;70.10;;;;;;5053493;28;20049;-69
2022/06/19 03:20:14;;;;;;;8.88;2.30;;;20.80;69.90;;;;;;5053533;28;20045;-70
2022/06/19 03:22:41;;;;;;;9.70;2.28;;;20.90;69.50;;;;;;5042248;28;20398;-70
2022/06/19 03:25:10;;;;;;;13.18;2.60;;;20.90;69.10;;;;;;5048001;28;20048;-71
2022/06/19 03:27:36;;;;;;;7.45;2.20;;;21.00;69.00;;;;;;5058701;28;20505;-77
2022/06/19 03:30:05;;;;;;;10.32;2.83;;;21.00;68.80;;;;;;5056659;28;20053;-77
2022/06/19 03:32:32;;;;;;;5.90;1.98;;;21.00;68.60;;;;;;5049688;28;20519;-67
2022/06/19 03:34:59;;;;;;;11.65;2.50;;;21.10;68.50;;;;;;5050894;28;20504;-78
2022/06/19 03:37:26;;;;;;;9.70;2.17;;;21.00;68.60;;;;;;5041641;28;20073;-76
2022/06/19 03:39:53;;;;;;;9.40;3.15;;;21.00;68.80;;;;;;5058218;28;20037;-71
2022/06/19 03:42:21;;;;;;;10.95;1.73;;;20.90;68.80;;;;;;5045192;28;20049;-70
2022/06/19 03:44:48;;;;;;;8.55;2.88;;;21.00;68.90;;;;;;5048099;28;20123;-77
2022/06/19 03:47:20;;;;;;;11.40;2.28;;;20.90;69.00;;;;;;5053696;28;20693;-71
2022/06/19 03:49:47;;;;;;;5.47;2.17;;;20.90;69.20;;;;;;5058119;28;20044;-71
2022/06/19 03:52:14;;;;;;;6.95;2.00;;;20.80;69.20;;;;;;5056738;28;20053;-76
2022/06/19 03:54:41;;;;;;;7.20;2.03;;;20.80;69.30;;;;;;5052843;28;21311;-70
2022/06/19 03:57:10;;;;;;;4.72;1.58;;;20.80;69.40;;;;;;5055643;28;20044;-72
2022/06/19 03:59:38;;;;;;;8.65;2.35;;;20.80;69.50;;;;;;5083022;28;20482;-70
2022/06/19 04:02:05;;;;;;;7.97;2.05;;;20.80;69.50;;;;;;5048802;28;20060;-67
2022/06/19 04:04:33;;;;;;;11.70;2.75;;;20.80;69.50;;;;;;5049573;28;20049;-68
2022/06/19 04:07:00;;;;;;;13.43;3.50;;;20.80;69.50;;;;;;5042164;28;20620;-74
2022/06/19 04:09:27;;;;;;;13.40;3.08;;;20.90;69.30;;;;;;5043449;28;20528;-71
2022/06/19 04:11:54;;;;;;;6.57;2.17;;;20.90;69.40;;;;;;5040274;28;20063;-68
2022/06/19 04:14:21;;;;;;;14.25;2.47;;;20.90;69.20;;;;;;5045836;28;20497;-70
2022/06/19 04:16:49;;;;;;;9.48;2.05;;;21.00;69.00;;;;;;5040973;28;20049;-69
2022/06/19 04:19:16;;;;;;;4.28;1.65;;;21.00;68.60;;;;;;5043112;28;20041;-71
2022/06/19 04:21:45;;;;;;;8.05;1.92;;;21.00;68.40;;;;;;5046344;28;20044;-76
2022/06/19 04:24:16;;;;;;;5.80;2.25;;;21.10;68.10;;;;;;5046659;28;20052;-69
2022/06/19 04:26:43;;;;;;;11.00;2.88;;;21.10;68.00;;;;;;5044535;28;20128;-68
2022/06/19 04:29:11;;;;;;;8.25;2.45;;;21.10;67.90;;;;;;5051621;28;20044;-76
2022/06/19 04:31:38;;;;;;;8.87;2.50;;;21.10;67.50;;;;;;5043788;28;20580;-72
2022/06/19 04:34:08;;;;;;;9.70;2.35;;;21.20;67.70;;;;;;5042448;28;20579;-71
2022/06/19 04:36:35;;;;;;;7.97;3.30;;;21.20;67.60;;;;;;5046953;28;20051;-71
2022/06/19 04:39:03;;;;;;;7.05;2.30;;;21.20;67.70;;;;;;5043465;28;20052;-71
2022/06/19 04:41:32;;;;;;;9.75;2.42;;;21.20;67.80;;;;;;5043561;28;20564;-77
2022/06/19 04:44:00;;;;;;;10.68;2.33;;;21.20;67.90;;;;;;5040683;28;20045;-70
2022/06/19 04:46:28;;;;;;;7.65;1.95;;;21.20;68.20;;;;;;5052646;28;20411;-70
2022/06/19 04:48:55;;;;;;;10.27;2.33;;;21.20;68.40;;;;;;5057271;28;20057;-69
2022/06/19 04:51:24;;;;;;;5.47;2.20;;;21.20;68.60;;;;;;5054358;28;20129;-78
2022/06/19 04:53:53;;;;;;;5.78;2.05;;;21.20;68.70;;;;;;5048004;28;20041;-77
2022/06/19 04:56:21;;;;;;;13.15;2.75;;;21.20;68.60;;;;;;5045687;28;20055;-68
2022/06/19 04:58:48;;;;;;;8.73;2.38;;;21.20;68.90;;;;;;5050883;28;20055;-71
2022/06/19 05:01:21;;;;;;;4.20;2.03;;;21.20;69.00;;;;;;5045476;28;20040;-70
2022/06/19 05:03:48;;;;;;;6.57;2.10;;;21.20;69.20;;;;;;5045676;28;20588;-70
2022/06/19 05:06:15;;;;;;;9.32;3.20;;;21.20;69.30;;;;;;5043607;28;20420;-71
2022/06/19 05:08:43;;;;;;;15.00;2.65;;;21.20;69.30;;;;;;5042434;28;20048;-68
2022/06/19 05:11:10;;;;;;;10.55;2.45;;;21.30;69.00;;;;;;5042585;28;20048;-71
2022/06/19 05:13:37;;;;;;;5.93;2.08;;;21.30;69.00;;;;;;5044904;28;20048;-74
2022/06/19 05:16:07;;;;;;;8.82;2.30;;;21.30;68.80;;;;;;5031326;28;20078;-69
2022/06/19 05:18:35;;;;;;;6.93;1.80;;;21.40;68.60;;;;;;5053188;28;20106;-77
2022/06/19 05:21:04;;;;;;;9.25;2.17;;;21.40;68.90;;;;;;5049107;28;20057;-76
2022/06/19 05:23:32;;;;;;;9.77;2.55;;;21.40;69.00;;;;;;5046871;28;20059;-76
2022/06/19 05:26:02;;;;;;;8.95;2.55;;;21.40;69.00;;;;;;5056079;28;20048;-69
2022/06/19 05:28:31;;;;;;;6.32;2.17;;;21.40;69.30;;;;;;5047532;28;20055;-68
2022/06/19 05:30:59;;;;;;;10.52;2.00;;;21.40;69.40;;;;;;5058641;28;20495;-72
2022/06/19 05:33:27;;;;;;;9.65;2.03;;;21.50;69.20;;;;;;5056775;28;20508;-70
2022/06/19 05:35:54;;;;;;;8.65;2.03;;;21.50;69.00;;;;;;5057553;28;20051;-75
2022/06/19 05:38:22;;;;;;;8.43;2.15;;;21.60;69.00;;;;;;5058345;28;20045;-71
2022/06/19 05:40:51;;;;;;;7.75;2.42;;;21.60;68.90;;;;;;5057887;28;20044;-71
2022/06/19 05:43:19;;;;;;;7.23;2.57;;;21.70;68.90;;;;;;5058616;28;20119;-69
2022/06/19 05:45:53;;;;;;;11.98;2.22;;;21.70;68.90;;;;;;5039446;28;20049;-71
2022/06/19 05:48:20;;;;;;;7.43;2.42;;;21.80;69.00;;;;;;5053875;28;20060;-77
2022/06/19 05:50:58;;;;;;;8.25;1.75;;;21.80;69.00;;;;;;5053977;28;20349;-72
2022/06/19 05:53:25;;;;;;;7.00;2.17;;;21.90;69.00;;;;;;5055076;28;20045;-75
2022/06/19 05:55:52;;;;;;;10.88;2.30;;;21.90;69.00;;;;;;5059294;28;20053;-72
2022/06/19 05:58:20;;;;;;;8.85;2.00;;;21.90;69.00;;;;;;5061982;28;20040;-72
2022/06/19 06:00:47;;;;;;;9.77;3.10;;;21.90;69.00;;;;;;5055787;28;20266;-71
2022/06/19 06:03:16;;;;;;;7.30;1.98;;;22.00;68.90;;;;;;5062017;28;20045;-71
2022/06/19 06:05:43;;;;;;;7.47;2.40;;;22.00;68.50;;;;;;5057515;28;20056;-70
2022/06/19 06:08:10;;;;;;;8.60;2.28;;;22.10;68.70;;;;;;5057029;28;20067;-71
2022/06/19 06:10:37;;;;;;;8.77;1.98;;;22.10;68.50;;;;;;5056400;28;20130;-72
2022/06/19 06:13:04;;;;;;;12.90;2.80;;;22.10;68.30;;;;;;5058199;28;20416;-68
2022/06/19 06:15:33;;;;;;;7.22;2.10;;;22.20;68.00;;;;;;5052567;28;20059;-70
2022/06/19 06:18:01;;;;;;;8.02;3.35;;;22.20;67.60;;;;;;5054191;28;20048;-67
2022/06/19 06:20:29;;;;;;;8.88;2.65;;;22.30;67.60;;;;;;5047884;28;20762;-71
2022/06/19 06:22:56;;;;;;;6.90;2.05;;;22.40;67.20;;;;;;5057043;28;20110;-71
2022/06/19 06:25:24;;;;;;;7.93;2.33;;;22.50;67.20;;;;;;5053643;28;20813;-73
2022/06/19 06:27:51;;;;;;;6.95;2.03;;;22.60;67.20;;;;;;5052822;28;20049;-70
2022/06/19 06:30:18;;;;;;;12.75;2.42;;;22.60;67.10;;;;;;5050681;28;20404;-71
2022/06/19 06:32:48;;;;;;;5.80;3.30;;;22.70;67.00;;;;;;5051104;28;20133;-71
2022/06/19 06:35:15;;;;;;;4.57;2.00;;;22.80;66.80;;;;;;5055047;28;20045;-76
2022/06/19 06:37:42;;;;;;;8.48;2.78;;;22.90;66.80;;;;;;5057787;28;20059;-70
2022/06/19 06:40:11;;;;;;;9.48;2.70;;;23.00;66.20;;;;;;5059184;28;20048;-66
2022/06/19 06:42:38;;;;;;;5.40;2.03;;;23.10;65.80;;;;;;5055743;28;20162;-70
2022/06/19 06:45:08;;;;;;;7.33;2.07;;;23.20;65.80;;;;;;5045881;28;20504;-70
2022/06/19 06:47:35;;;;;;;4.57;1.73;;;23.30;65.40;;;;;;5062863;28;20520;-67
2022/06/19 06:50:05;;;;;;;10.52;2.50;;;23.50;65.50;;;;;;5060331;28;20410;-67
2022/06/19 06:52:33;;;;;;;7.55;1.90;;;23.60;65.80;;;;;;5063756;28;20049;-70
2022/06/19 06:55:01;;;;;;;5.93;1.77;;;23.70;65.20;;;;;;5062096;28;20711;-70
2022/06/19 06:57:29;;;;;;;6.63;2.47;;;23.80;65.80;;;;;;5063135;28;20036;-70
2022/06/19 06:59:56;;;;;;;7.72;2.47;;;23.90;65.30;;;;;;5058333;28;20045;-69
2022/06/19 07:02:24;;;;;;;4.38;1.92;;;24.10;65.50;;;;;;5053004;28;20488;-70
2022/06/19 07:04:51;;;;;;;5.18;2.88;;;24.10;65.20;;;;;;5088818;27;20069;-69
2022/06/19 07:07:20;;;;;;;8.55;2.25;;;24.20;64.90;;;;;;5056385;28;20045;-70
2022/06/19 07:09:48;;;;;;;4.40;1.90;;;24.40;64.70;;;;;;5063059;28;20053;-69
2022/06/19 07:12:15;;;;;;;9.88;2.05;;;24.30;64.00;;;;;;5058813;28;20492;-74
2022/06/19 07:14:42;;;;;;;7.45;2.25;;;24.40;64.60;;;;;;5056962;28;20053;-68
2022/06/19 07:17:10;;;;;;;5.25;1.83;;;24.60;64.80;;;;;;5057647;28;20044;-70
2022/06/19 07:19:37;;;;;;;10.13;3.28;;;24.70;64.90;;;;;;5059290;28;20059;-67
2022/06/19 07:22:04;;;;;;;9.35;2.72;;;24.80;64.90;;;;;;5058403;28;20516;-69
2022/06/19 07:24:33;;;;;;;6.47;2.50;;;25.00;65.00;;;;;;5052203;28;20052;-70
2022/06/19 07:27:00;;;;;;;6.43;2.25;;;25.20;64.90;;;;;;5049277;28;20040;-70
2022/06/19 07:29:31;;;;;;;9.52;3.42;;;25.30;64.40;;;;;;5045145;28;20091;-71
2022/06/19 07:31:58;;;;;;;7.35;2.83;;;25.50;63.60;;;;;;5048796;28;20045;-71
2022/06/19 07:34:26;;;;;;;6.65;1.90;;;25.60;63.90;;;;;;5048327;28;20099;-70
2022/06/19 07:36:53;;;;;;;10.85;2.05;;;25.80;63.10;;;;;;5056669;28;20094;-70
2022/06/19 07:39:21;;;;;;;9.38;2.47;;;25.90;62.60;;;;;;5048014;28;20147;-74
2022/06/19 07:41:49;;;;;;;9.30;2.60;;;26.00;59.60;;;;;;5046944;28;20509;-72
2022/06/19 07:44:16;;;;;;;11.35;2.85;;;26.10;58.40;;;;;;5054480;28;20136;-70
2022/06/19 07:52:09;;;;;;;4.78;2.15;;;26.50;56.90;;;;;;5054409;28;20051;-76
2022/06/19 07:54:35;;;;;;;8.88;3.40;;;26.60;56.20;;;;;;5039371;28;20051;-68
2022/06/19 07:57:04;;;;;;;9.55;2.83;;;26.70;55.60;;;;;;5055623;28;20144;-71
2022/06/19 07:59:31;;;;;;;7.10;3.42;;;26.80;55.20;;;;;;5056434;28;20044;-77
2022/06/19 08:01:58;;;;;;;10.80;3.42;;;26.90;54.80;;;;;;5050961;28;20079;-70
2022/06/19 08:04:25;;;;;;;10.27;3.83;;;27.10;54.20;;;;;;5044527;28;20051;-67
2022/06/19 08:06:52;;;;;;;11.63;3.38;;;27.10;53.90;;;;;;5046365;28;20049;-67
2022/06/19 08:09:19;;;;;;;6.70;3.35;;;27.20;54.00;;;;;;5053271;28;20160;-68
2022/06/19 08:11:46;;;;;;;9.55;4.13;;;27.20;53.60;;;;;;5056348;28;20390;-70
2022/06/19 08:14:14;;;;;;;12.73;3.95;;;27.20;53.30;;;;;;5055790;28;20056;-71
2022/06/19 08:16:41;;;;;;;8.87;3.40;;;27.30;52.90;;;;;;5052106;28;20518;-71
2022/06/19 08:19:08;;;;;;;10.30;3.72;;;27.40;52.80;;;;;;5050448;28;20638;-72
2022/06/19 08:21:35;;;;;;;9.95;4.32;;;27.30;52.90;;;;;;5046174;28;20408;-71
2022/06/19 08:24:02;;;;;;;12.73;4.60;;;27.40;52.80;;;;;;5046748;28;20496;-74
2022/06/19 08:26:29;;;;;;;7.20;4.05;;;27.50;52.30;;;;;;5044364;28;20527;-71
2022/06/19 08:28:59;;;;;;;8.32;3.88;;;27.60;52.30;;;;;;5048036;28;20041;-74
2022/06/19 08:31:28;;;;;;;10.88;4.22;;;27.70;51.80;;;;;;5046688;28;20053;-73
2022/06/19 08:33:55;;;;;;;;;;;27.90;51.60;;;;;;5048462;28;20145;-71
2022/06/19 08:36:24;;;;;;;12.63;4.03;;;28.10;50.70;;;;;;5051686;28;19928;-75
2022/06/19 08:38:54;;;;;;;9.75;4.40;;;28.10;50.70;;;;;;5041484;28;20049;-71
2022/06/19 08:41:47;;;;;;;9.27;4.10;;;28.20;50.40;;;;;;5046370;28;20454;-71
2022/06/19 08:44:41;;;;;;;8.73;4.13;;;28.10;50.60;;;;;;5046793;28;20080;-68
2022/06/19 08:47:27;;;;;;;7.50;3.95;;;28.20;50.60;;;;;;5046989;28;20098;-70
2022/06/19 08:50:04;;;;;;;10.23;4.50;;;28.30;50.40;;;;;;5046446;28;20040;-71
2022/06/19 08:52:44;;;;;;;8.52;4.85;;;28.30;50.10;;;;;;5046440;28;20040;-71
2022/06/19 08:55:25;;;;;;;7.10;4.05;;;28.30;50.00;;;;;;5048903;28;20063;-69
2022/06/19 08:58:02;;;;;;;7.90;4.13;;;28.40;50.00;;;;;;5043379;28;20432;-71
2022/06/19 09:00:37;;;;;;;7.70;4.78;;;28.40;49.80;;;;;;5045047;28;20137;-76
2022/06/19 09:03:13;;;;;;;8.95;4.40;;;28.50;49.80;;;;;;5059894;28;20554;-73
2022/06/19 09:05:48;;;;;;;8.85;4.57;;;28.60;49.40;;;;;;5045309;28;20052;-77
2022/06/19 09:08:52;;;;;;;7.57;3.72;;;28.60;49.10;;;;;;5043909;28;20051;-69
2022/06/19 09:11:48;;;;;;;8.32;4.57;;;28.80;48.80;;;;;;5043279;28;20064;-71
2022/06/19 09:14:35;;;;;;;10.50;4.07;;;28.90;49.10;;;;;;5034152;28;20053;-78
2022/06/19 09:17:09;;;;;;;9.15;4.32;;;29.00;48.50;;;;;;5041792;28;20048;-69
2022/06/19 09:19:48;;;;;;;7.78;4.32;;;29.00;48.40;;;;;;5044170;28;20501;-74
2022/06/19 09:22:33;;;;;;;8.02;3.83;;;29.00;48.20;;;;;;5044050;28;20053;-73
2022/06/19 09:25:29;;;;;;;9.60;4.32;;;29.10;48.10;;;;;;5043919;28;20407;-71
2022/06/19 09:28:06;;;;;;;11.10;4.55;;;29.10;47.80;;;;;;5043596;28;20397;-70
2022/06/19 09:30:40;;;;;;;12.55;4.13;;;29.20;47.50;;;;;;5040394;28;20053;-72
2022/06/19 09:33:14;;;;;;;9.40;4.35;;;29.20;47.40;;;;;;5043390;28;20041;-70
2022/06/19 09:35:46;;;;;;;8.60;4.28;;;29.30;47.20;;;;;;5048179;28;20056;-70
2022/06/19 09:38:16;;;;;;;8.20;4.35;;;29.30;47.30;;;;;;5053917;28;20132;-72
2022/06/19 09:40:49;;;;;;;12.10;4.80;;;29.30;47.40;;;;;;5052299;28;20132;-69
2022/06/19 09:43:22;;;;;;;9.40;4.68;;;29.40;47.40;;;;;;5052034;28;20037;-71
2022/06/19 09:45:55;;;;;;;10.23;4.28;;;29.40;47.60;;;;;;5051437;28;20048;-68
2022/06/19 09:48:25;;;;;;;9.00;4.63;;;29.50;47.20;;;;;;5048049;28;20052;-76
2022/06/19 09:51:00;;;;;;;9.13;4.32;;;29.50;47.00;;;;;;5045080;28;20080;-69
2022/06/19 09:53:31;;;;;;;12.18;4.40;;;29.50;46.90;;;;;;5047829;28;20400;-71
2022/06/19 09:56:06;;;;;;;9.07;4.55;;;29.50;47.00;;;;;;5046175;28;20036;-76
2022/06/19 09:58:38;;;;;;;9.65;3.67;;;29.50;46.90;;;;;;5043513;28;20053;-78
2022/06/19 10:01:06;;;;;;;5.97;3.97;;;29.60;46.70;;;;;;5046468;28;20490;-67
2022/06/19 10:03:39;;;;;;;7.40;4.10;;;29.60;46.80;;;;;;5046402;28;20037;-69
2022/06/19 10:06:13;;;;;;;7.93;3.90;;;29.60;47.40;;;;;;5045815;28;20065;-72
2022/06/19 10:08:45;;;;;;;8.65;4.18;;;29.80;47.90;;;;;;5054187;28;20098;-69
2022/06/19 10:11:17;;;;;;;7.60;3.70;;;30.00;46.40;;;;;;5049759;28;20132;-70
2022/06/19 10:13:49;;;;;;;7.82;4.10;;;30.00;46.70;;;;;;5053687;28;20055;-69
2022/06/19 10:16:27;;;;;;;8.13;3.90;;;30.00;46.60;;;;;;5052358;28;20042;-69
2022/06/19 10:18:56;;;;;;;11.90;4.43;;;30.00;46.30;;;;;;5057008;28;20044;-69
2022/06/19 10:24:22;;;;;;;6.78;3.67;;;30.10;46.10;;;;;;5043833;28;20079;-72
2022/06/19 10:26:59;;;;;;;9.80;3.95;;;30.10;46.40;;;;;;5045805;28;20129;-72
2022/06/19 10:29:40;;;;;;;7.95;4.32;;;30.10;46.10;;;;;;5043277;28;20049;-74
2022/06/19 10:32:25;;;;;;;6.55;3.53;;;30.10;46.10;;;;;;5047452;28;20037;-75
2022/06/19 10:35:03;;;;;;;9.70;4.50;;;30.10;46.10;;;;;;5044868;28;20123;-72
2022/06/19 10:37:41;;;;;;;11.37;4.53;;;30.10;46.40;;;;;;5045057;28;20060;-71
2022/06/19 10:40:22;;;;;;;8.75;4.63;;;30.20;46.10;;;;;;5045144;28;20480;-71
2022/06/19 10:43:00;;;;;;;9.30;4.25;;;30.20;46.10;;;;;;5050015;28;20492;-75
2022/06/19 10:45:39;;;;;;;8.55;4.65;;;30.10;46.30;;;;;;5046479;28;20048;-68
2022/06/19 10:48:33;;;;;;;11.32;5.07;;;30.10;46.40;;;;;;5044491;28;20075;-76
2022/06/19 10:51:21;;;;;;;8.18;4.82;;;30.20;46.10;;;;;;5041919;28;20045;-68
2022/06/19 10:54:05;;;;;;;6.78;4.30;;;30.20;45.90;;;;;;5052289;28;20055;-72
2022/06/19 10:56:42;;;;;;;9.55;4.50;;;30.20;46.40;;;;;;5055275;28;20134;-68
2022/06/19 10:59:09;;;;;;;11.65;4.72;;;30.30;46.10;;;;;;5051080;28;20049;-71
2022/06/19 11:04:35;;;;;;;11.30;4.07;;;30.30;46.30;;;;;;5054747;28;20040;-73
2022/06/19 11:07:06;;;;;;;6.22;4.30;;;30.30;46.00;;;;;;5055309;28;20048;-71
2022/06/19 11:09:39;;;;;;;7.80;5.30;;;30.40;46.70;;;;;;5055389;28;20121;-76
2022/06/19 11:12:11;;;;;;;9.07;4.63;;;30.50;45.90;;;;;;5058242;28;20045;-68
2022/06/19 11:14:49;;;;;;;8.70;4.28;;;30.60;45.70;;;;;;5050185;28;20049;-73
2022/06/19 11:17:28;;;;;;;6.82;4.43;;;30.60;45.60;;;;;;5051707;28;20504;-71
2022/06/19 11:19:56;;;;;;;10.25;4.57;;;30.60;45.60;;;;;;5042014;28;20044;-72
2022/06/19 11:22:36;;;;;;;7.30;3.65;;;30.50;45.60;;;;;;5046516;28;21121;-71
2022/06/19 11:25:30;;;;;;;10.75;4.28;;;30.30;45.90;;;;;;5047091;28;20056;-76
2022/06/19 11:28:02;;;;;;;8.43;4.65;;;30.40;45.80;;;;;;5049546;28;20057;-69
2022/06/19 11:30:34;;;;;;;8.13;4.90;;;30.60;45.50;;;;;;5046534;28;20047;-72
2022/06/19 11:33:05;;;;;;;11.30;4.75;;;30.60;45.30;;;;;;5048811;28;20055;-70
2022/06/19 11:35:44;;;;;;;7.30;4.07;;;30.50;45.40;;;;;;5050017;28;20056;-72
2022/06/19 11:38:13;;;;;;;10.82;4.03;;;30.60;45.90;;;;;;5053909;28;20045;-74
2022/06/19 11:40:46;;;;;;;12.07;4.45;;;30.70;46.20;;;;;;5050381;28;21072;-70
2022/06/19 11:43:30;;;;;;;8.88;4.57;;;30.70;45.50;;;;;;5040160;28;20068;-77
2022/06/19 11:46:01;;;;;;;9.93;4.55;;;30.50;45.70;;;;;;5032430;28;20401;-74
2022/06/19 11:48:28;;;;;;;14.25;4.85;;;30.50;46.00;;;;;;5037011;28;20059;-73
2022/06/19 11:50:58;;;;;;;7.20;4.60;;;30.60;46.40;;;;;;5039760;28;20515;-70
2022/06/19 11:53:27;;;;;;;8.00;4.13;;;30.70;46.20;;;;;;5036732;28;20079;-71
2022/06/19 11:56:16;;;;;;;8.98;4.57;;;30.80;46.30;;;;;;5028483;28;20049;-71
2022/06/19 11:58:44;;;;;;;;;;;31.00;45.80;;;;;;5031076;28;20561;-67
2022/06/19 12:01:14;;;;;;;10.52;4.43;;;31.10;46.10;;;;;;5026894;28;19921;-68
2022/06/19 12:03:48;;;;;;;10.00;4.95;;;31.20;45.80;;;;;;5030463;28;20053;-73
2022/06/19 12:06:17;;;;;;;11.50;4.63;;;31.30;46.10;;;;;;5027014;28;20501;-72
2022/06/19 12:08:55;;;;;;;8.32;4.05;;;31.60;45.90;;;;;;5029981;28;20030;-71
2022/06/19 12:11:37;;;;;;;9.70;5.50;;;31.70;45.60;;;;;;5029186;28;20056;-73
2022/06/19 12:14:05;;;;;;;14.60;4.72;;;31.80;45.50;;;;;;5030661;28;20045;-75
2022/06/19 12:16:32;;;;;;;12.37;4.30;;;31.90;44.60;;;;;;5034738;28;20136;-71
2022/06/19 12:19:16;;;;;;;9.90;4.03;;;31.90;44.70;;;;;;5034857;28;20452;-76
2022/06/19 12:22:04;;;;;;;6.30;4.05;;;31.70;44.80;;;;;;5037242;28;20687;-71
2022/06/19 12:24:41;;;;;;;8.63;4.18;;;31.60;44.60;;;;;;5031142;28;20045;-74
2022/06/19 12:27:14;;;;;;;8.52;4.68;;;31.60;45.10;;;;;;5036832;28;20096;-72
2022/06/19 12:29:47;;;;;;;8.35;4.15;;;31.50;45.00;;;;;;5033446;28;20055;-71
2022/06/19 12:32:23;;;;;;;8.15;4.35;;;31.40;45.40;;;;;;5027440;28;20053;-71
2022/06/19 12:34:54;;;;;;;11.98;4.60;;;31.50;45.50;;;;;;5026855;28;20063;-69
2022/06/19 12:37:25;;;;;;;7.25;4.43;;;31.60;45.70;;;;;;5025777;28;20052;-69
2022/06/19 12:39:52;;;;;;;8.00;4.20;;;31.70;45.40;;;;;;5035233;28;20161;-69
2022/06/19 12:42:28;;;;;;;9.02;4.18;;;31.70;45.00;;;;;;5047578;28;20501;-70
2022/06/19 12:45:06;;;;;;;7.32;4.22;;;31.70;44.60;;;;;;5045198;28;20057;-75
2022/06/19 12:47:41;;;;;;;7.50;4.05;;;31.60;44.90;;;;;;5046791;28;20045;-67
2022/06/19 12:50:36;;;;;;;10.80;4.85;;;31.50;45.50;;;;;;5044937;28;20048;-72
2022/06/19 12:53:23;;;;;;;9.10;4.55;;;31.50;45.70;;;;;;5043880;28;20057;-75
2022/06/19 12:55:58;;;;;;;10.07;4.60;;;31.60;45.50;;;;;;5053952;28;20406;-77
2022/06/19 12:58:52;;;;;;;8.68;4.22;;;31.70;45.30;;;;;;5050819;28;20044;-71
2022/06/19 13:01:28;;;;;;;9.55;4.10;;;31.90;44.60;;;;;;5045304;28;20087;-72
2022/06/19 13:04:06;;;;;;;10.07;4.40;;;31.80;45.00;;;;;;5051456;28;20040;-70
2022/06/19 13:07:04;;;;;;;9.68;4.70;;;31.90;45.00;;;;;;5055511;28;20417;-70
2022/06/19 13:09:49;;;;;;;7.57;4.22;;;32.00;44.70;;;;;;5046114;28;20059;-77
2022/06/19 13:12:31;;;;;;;8.27;4.10;;;31.90;44.40;;;;;;5049022;28;20059;-72
2022/06/19 13:15:17;;;;;;;11.75;4.63;;;31.80;44.60;;;;;;5046022;28;20472;-76
2022/06/19 13:17:51;;;;;;;11.05;4.22;;;31.70;44.80;;;;;;5042262;28;20055;-72
2022/06/19 13:20:29;;;;;;;11.45;4.50;;;31.70;45.00;;;;;;5050426;28;20056;-69